Time;durP1;ratioP1;P1;durP2;ratioP2;P2;SDS_P1;SDS_P2;PMS_P1;PMS_P2;Temp;Humidity;BMP_temperature;BMP_pressure;BME280_temperature;BME280_humidity;BME280_pressure;Samples;Min_cycle;Max_cycle;Signal;HPM_P1;HPM_P2
2023/09/20 00:00:34;;;;;;;8.65;2.13;;;;;;;16.19;100.00;99179.91;4998562;28;20033;-92
2023/09/20 00:03:00;;;;;;;7.60;1.95;;;;;;;16.12;100.00;99173.69;4998141;28;20030;-91
2023/09/20 00:05:26;;;;;;;6.43;2.20;;;;;;;16.16;100.00;99166.38;4998605;28;20022;-92
2023/09/20 00:07:54;;;;;;;9.10;2.30;;;;;;;16.13;100.00;99164.91;4998162;28;20073;-92
2023/09/20 00:10:21;;;;;;;8.43;2.03;;;;;;;16.12;100.00;99170.25;4997025;28;20030;-92
2023/09/20 00:12:46;;;;;;;7.68;2.10;;;;;;;16.07;100.00;99152.50;4998291;28;20026;-92
2023/09/20 00:15:12;;;;;;;8.65;2.60;;;;;;;16.06;100.00;99156.06;4996356;28;20105;-91
2023/09/20 00:17:38;;;;;;;7.75;1.92;;;;;;;16.03;100.00;99167.59;4994098;28;20384;-91
2023/09/20 00:20:12;;;;;;;8.32;2.13;;;;;;;16.11;100.00;99160.81;4995270;28;20053;-92
2023/09/20 00:22:44;;;;;;;5.38;1.25;;;;;;;16.04;100.00;99163.22;4995176;28;20026;-92
2023/09/20 00:25:11;;;;;;;6.30;1.48;;;;;;;16.05;100.00;99141.44;4993927;28;20057;-92
2023/09/20 00:27:38;;;;;;;5.63;1.50;;;;;;;16.09;100.00;99145.34;4993846;28;20496;-92
2023/09/20 00:30:10;;;;;;;6.50;1.75;;;;;;;15.99;100.00;99136.84;4995015;28;20473;-92
2023/09/20 00:32:39;;;;;;;7.20;1.60;;;;;;;16.02;100.00;99150.38;4994792;28;20026;-92
2023/09/20 00:35:13;;;;;;;3.88;1.30;;;;;;;16.04;100.00;99156.25;4995090;28;20548;-92
2023/09/20 00:37:41;;;;;;;9.23;2.33;;;;;;;16.11;100.00;99161.63;4995008;28;20030;-92
2023/09/20 00:40:15;;;;;;;4.20;1.50;;;;;;;16.01;100.00;99150.50;4995039;28;20102;-92
2023/09/20 00:42:41;;;;;;;3.90;1.50;;;;;;;16.04;100.00;99153.66;4994464;28;20397;-91
2023/09/20 00:45:07;;;;;;;8.68;2.50;;;;;;;16.03;100.00;99153.78;4994684;28;20118;-91
2023/09/20 00:47:33;;;;;;;7.57;1.80;;;;;;;16.04;100.00;99140.63;4994808;28;20105;-92
2023/09/20 00:49:59;;;;;;;14.15;2.75;;;;;;;16.14;100.00;99152.69;4994687;28;20424;-92
2023/09/20 00:52:27;;;;;;;6.60;2.08;;;;;;;15.98;100.00;99130.00;4994646;28;20472;-92
2023/09/20 00:54:56;;;;;;;8.70;2.80;;;;;;;15.99;100.00;99129.03;4993306;28;20174;-92
2023/09/20 00:57:22;;;;;;;9.52;2.65;;;;;;;15.93;100.00;99125.28;4994470;28;20034;-92
2023/09/20 00:59:47;;;;;;;12.48;2.58;;;;;;;15.98;100.00;99128.22;4994409;28;20362;-92
2023/09/20 01:02:14;;;;;;;12.07;3.35;;;;;;;15.99;100.00;99118.63;4994313;28;20034;-92
2023/09/20 01:04:40;;;;;;;8.52;2.08;;;;;;;16.00;100.00;99133.28;4994925;28;20030;-91
2023/09/20 01:07:06;;;;;;;13.30;3.28;;;;;;;15.84;100.00;99134.81;4994497;28;20026;-92
2023/09/20 01:09:31;;;;;;;15.40;3.30;;;;;;;15.90;100.00;99137.75;4994050;28;20042;-91
2023/09/20 01:11:57;;;;;;;17.13;3.53;;;;;;;15.94;100.00;99126.09;4992602;28;20056;-91
2023/09/20 01:14:23;;;;;;;10.93;2.90;;;;;;;15.90;100.00;99125.59;4981228;28;20027;-91
2023/09/20 01:16:48;;;;;;;14.52;3.45;;;;;;;15.95;100.00;99130.34;4973466;28;20110;-92
2023/09/20 01:19:14;;;;;;;17.83;3.83;;;;;;;15.80;100.00;99148.28;4974557;28;20105;-91
2023/09/20 01:21:42;;;;;;;16.95;3.58;;;;;;;15.79;100.00;99121.44;4974675;28;20374;-91
2023/09/20 01:24:09;;;;;;;14.77;3.38;;;;;;;15.86;100.00;99126.84;4973260;28;20027;-92
2023/09/20 01:26:38;;;;;;;11.65;4.13;;;;;;;15.77;100.00;99123.38;5005165;28;20027;-92
2023/09/20 01:29:04;;;;;;;14.50;4.53;;;;;;;15.81;100.00;99109.09;4974250;28;20062;-92
2023/09/20 01:31:30;;;;;;;15.45;4.22;;;;;;;15.86;100.00;99110.44;4974396;28;20106;-92
2023/09/20 01:33:56;;;;;;;14.10;4.00;;;;;;;15.81;100.00;99098.69;4974593;28;20023;-91
2023/09/20 01:36:21;;;;;;;16.10;3.88;;;;;;;15.89;100.00;99112.72;4974276;28;20027;-91
2023/09/20 01:38:46;;;;;;;17.00;4.32;;;;;;;15.85;100.00;99088.81;4972911;28;20023;-91
2023/09/20 01:41:12;;;;;;;15.77;3.72;;;;;;;15.86;100.00;99095.63;4974319;28;20461;-92
2023/09/20 01:43:38;;;;;;;16.83;4.15;;;;;;;15.87;100.00;99071.22;4974338;28;20362;-92
2023/09/20 01:46:04;;;;;;;18.48;4.30;;;;;;;15.79;100.00;99064.22;4973948;28;20035;-91
2023/09/20 01:48:31;;;;;;;15.32;3.92;;;;;;;15.79;100.00;99064.22;5005560;28;20027;-91
2023/09/20 01:50:56;;;;;;;21.25;4.93;;;;;;;15.84;100.00;99066.34;4974088;28;20114;-92
2023/09/20 01:53:25;;;;;;;20.85;4.43;;;;;;;15.82;100.00;99063.88;4973891;28;20203;-92
2023/09/20 01:55:51;;;;;;;24.98;5.15;;;;;;;15.81;100.00;99064.06;4974017;28;20077;-92
2023/09/20 01:58:16;;;;;;;22.55;5.22;;;;;;;15.81;100.00;99048.47;4973823;28;20474;-92
2023/09/20 02:00:42;;;;;;;21.45;6.13;;;;;;;15.70;100.00;99039.13;4974176;28;20487;-92
2023/09/20 02:03:13;;;;;;;19.42;4.43;;;;;;;15.82;100.00;99055.28;4973672;28;20062;-91
2023/09/20 02:05:40;;;;;;;18.33;5.82;;;;;;;15.68;100.00;99035.84;4973696;28;20489;-91
2023/09/20 02:08:08;;;;;;;17.63;5.43;;;;;;;15.72;100.00;99047.59;4973792;28;20042;-92
2023/09/20 02:10:34;;;;;;;27.67;5.10;;;;;;;15.73;100.00;99044.03;4972496;28;20027;-91
2023/09/20 02:13:00;;;;;;;15.07;5.03;;;;;;;15.72;100.00;99039.78;4973829;28;20087;-91
2023/09/20 02:15:27;;;;;;;20.80;5.20;;;;;;;15.65;100.00;99030.94;4973703;28;20054;-91
2023/09/20 02:17:53;;;;;;;17.88;5.18;;;;;;;15.66;100.00;99022.19;4972245;28;20034;-90
2023/09/20 02:20:20;;;;;;;16.20;5.22;;;;;;;15.59;100.00;99019.38;4973404;28;20027;-91
2023/09/20 02:22:50;;;;;;;23.10;5.88;;;;;;;15.59;100.00;99026.38;4973497;28;20485;-91
2023/09/20 02:25:20;;;;;;;19.05;5.45;;;;;;;15.69;100.00;99016.66;4973496;28;20106;-91
2023/09/20 02:27:47;;;;;;;22.77;5.93;;;;;;;15.72;100.00;99011.16;4973460;28;20023;-91
2023/09/20 02:30:17;;;;;;;18.75;6.13;;;;;;;15.70;100.00;98987.09;4973486;28;20030;-90
2023/09/20 02:32:43;;;;;;;23.35;6.05;;;;;;;15.73;100.00;99002.41;4973515;28;20051;-91
2023/09/20 02:35:09;;;;;;;25.65;6.35;;;;;;;15.63;100.00;98975.69;4973313;28;20549;-92
2023/09/20 02:37:36;;;;;;;25.40;6.85;;;;;;;15.74;100.00;98978.03;4973129;28;20114;-90
2023/09/20 02:40:12;;;;;;;22.50;6.72;;;;;;;15.58;100.00;98978.75;5004442;28;20026;-90
2023/09/20 02:42:51;;;;;;;24.15;6.60;;;;;;;15.66;100.00;98971.97;4972994;28;20391;-90
2023/09/20 02:45:17;;;;;;;26.30;8.02;;;;;;;15.54;100.00;98961.00;4973219;28;20453;-91
2023/09/20 02:47:43;;;;;;;26.40;7.38;;;;;;;15.59;100.00;98958.75;4973029;28;20108;-91
2023/09/20 02:50:10;;;;;;;26.88;7.45;;;;;;;15.55;100.00;98947.03;5004568;28;20038;-90
2023/09/20 02:52:36;;;;;;;31.80;7.47;;;;;;;15.53;100.00;98943.75;4972882;28;20026;-91
2023/09/20 02:55:06;;;;;;;27.95;7.55;;;;;;;15.60;100.00;98939.56;4971738;28;20023;-90
2023/09/20 02:57:32;;;;;;;29.70;8.25;;;;;;;15.59;100.00;98922.34;4973159;28;20019;-91
2023/09/20 02:59:58;;;;;;;21.80;6.95;;;;;;;15.54;100.00;98929.81;4972989;28;20037;-91
2023/09/20 03:02:23;;;;;;;33.63;8.25;;;;;;;15.53;100.00;98933.38;4972836;28;20117;-90
2023/09/20 03:04:52;;;;;;;31.20;7.85;;;;;;;15.53;100.00;98938.56;5004346;28;20069;-92
2023/09/20 03:07:18;;;;;;;24.30;7.60;;;;;;;15.63;100.00;98934.06;4973131;28;20076;-90
2023/09/20 03:09:44;;;;;;;30.17;8.07;;;;;;;15.58;100.00;98931.94;4972776;28;20061;-92
2023/09/20 03:12:10;;;;;;;33.67;9.68;;;;;;;15.54;100.00;98924.59;4972942;28;20030;-91
2023/09/20 03:14:38;;;;;;;28.48;9.55;;;;;;;15.44;100.00;98918.72;4972841;28;20412;-90
2023/09/20 03:17:04;;;;;;;30.65;10.18;;;;;;;15.50;100.00;98918.09;4972929;28;20469;-90
2023/09/20 03:19:31;;;;;;;50.28;10.20;;;;;;;15.46;100.00;98903.75;4972973;28;20057;-90
2023/09/20 03:21:59;;;;;;;30.05;8.52;;;;;;;15.49;100.00;98932.88;4971590;28;20027;-91
2023/09/20 03:24:25;;;;;;;32.33;9.48;;;;;;;15.55;100.00;98921.03;4972824;28;20109;-90
2023/09/20 03:26:52;;;;;;;30.13;10.85;;;;;;;15.50;100.00;98918.09;4972981;28;20106;-91
2023/09/20 03:29:17;;;;;;;35.30;9.63;;;;;;;15.53;100.00;98913.41;4972740;28;20500;-90
2023/09/20 03:31:44;;;;;;;34.70;10.00;;;;;;;15.57;100.00;98908.69;4972791;28;20109;-90
2023/09/20 03:34:11;;;;;;;38.33;9.63;;;;;;;15.63;100.00;98906.28;4972787;28;20026;-90
2023/09/20 03:36:37;;;;;;;38.13;10.63;;;;;;;15.67;100.00;98893.75;5004065;28;20041;-89
2023/09/20 03:39:03;;;;;;;40.67;10.98;;;;;;;15.66;100.00;98907.75;4972685;28;20023;-90
2023/09/20 03:41:28;;;;;;;28.08;9.35;;;;;;;15.66;100.00;98889.53;4972407;28;20485;-90
2023/09/20 03:43:54;;;;;;;35.03;10.35;;;;;;;15.63;100.00;98869.88;4972550;28;20039;-90
2023/09/20 03:46:19;;;;;;;30.67;10.07;;;;;;;15.61;100.00;98863.19;4972871;28;20022;-90
2023/09/20 03:48:45;;;;;;;33.85;9.90;;;;;;;15.58;100.00;98853.94;4972402;28;20509;-91
2023/09/20 03:51:15;;;;;;;29.88;9.80;;;;;;;15.58;100.00;98837.47;4973256;28;20069;-90
2023/09/20 03:53:44;;;;;;;29.42;9.88;;;;;;;15.50;100.00;98835.69;4976377;28;20504;-91
2023/09/20 03:56:11;;;;;;;31.70;10.02;;;;;;;15.67;100.00;98831.34;4976224;28;20030;-91
2023/09/20 03:58:36;;;;;;;30.35;10.60;;;;;;;15.59;100.00;98834.72;4974962;28;20061;-92
2023/09/20 04:01:02;;;;;;;28.75;9.32;;;;;;;15.57;100.00;98833.25;4976250;28;20027;-90
2023/09/20 04:03:28;;;;;;;26.30;9.25;;;;;;;15.58;100.00;98821.88;4975981;28;20045;-91
2023/09/20 04:05:56;;;;;;;28.40;9.25;;;;;;;15.54;100.00;98878.59;5007339;28;20026;-90
2023/09/20 04:08:22;;;;;;;31.17;9.18;;;;;;;15.62;100.00;98812.78;4976239;28;20070;-90
2023/09/20 04:10:47;;;;;;;28.60;9.18;;;;;;;15.67;100.00;98807.94;4975862;28;20497;-90
2023/09/20 04:13:14;;;;;;;30.45;9.55;;;;;;;15.64;100.00;98816.06;4975944;28;20027;-91
2023/09/20 04:15:42;;;;;;;31.05;9.27;;;;;;;15.62;100.00;98802.41;5007156;28;20105;-91
2023/09/20 04:18:08;;;;;;;23.38;8.07;;;;;;;15.68;100.00;98780.97;4974456;28;20169;-90
2023/09/20 04:20:33;;;;;;;36.83;9.80;;;;;;;15.61;100.00;98765.19;4975897;28;20101;-90
2023/09/20 04:22:59;;;;;;;32.78;8.48;;;;;;;15.60;100.00;98770.53;4975517;28;20031;-90
2023/09/20 04:25:24;;;;;;;29.50;9.52;;;;;;;15.65;100.00;98757.84;4975638;28;20031;-90
2023/09/20 04:27:50;;;;;;;33.60;9.95;;;;;;;15.61;100.00;98769.56;4975597;28;20489;-91
2023/09/20 04:30:17;;;;;;;41.17;8.45;;;;;;;15.61;100.00;98764.38;4975548;28;20124;-91
2023/09/20 04:32:43;;;;;;;20.52;8.18;;;;;;;15.62;100.00;98755.59;4975441;28;20022;-89
2023/09/20 04:35:08;;;;;;;26.67;8.95;;;;;;;15.58;100.00;98752.50;4975427;28;20396;-91
2023/09/20 04:37:34;;;;;;;21.90;7.85;;;;;;;15.62;100.00;98738.19;4975361;28;20081;-91
2023/09/20 04:40:00;;;;;;;30.77;8.77;;;;;;;15.67;100.00;98750.69;4975353;28;20026;-92
2023/09/20 04:42:27;;;;;;;34.95;10.02;;;;;;;15.60;100.00;98742.72;4975032;28;20134;-91
2023/09/20 04:44:52;;;;;;;26.00;7.90;;;;;;;15.62;100.00;98739.97;4975476;28;20039;-91
2023/09/20 04:47:18;;;;;;;23.27;8.68;;;;;;;15.58;100.00;98759.47;4975432;28;20085;-91
2023/09/20 04:49:44;;;;;;;31.58;7.43;;;;;;;15.60;100.00;98760.13;4975279;28;20077;-89
2023/09/20 04:52:11;;;;;;;41.65;8.55;;;;;;;15.61;100.00;98759.16;4975071;28;20081;-90
2023/09/20 04:54:37;;;;;;;28.45;8.10;;;;;;;15.58;100.00;98769.88;4975142;28;20023;-90
2023/09/20 04:57:04;;;;;;;27.60;9.32;;;;;;;15.60;100.00;98754.94;5006403;28;20460;-89
2023/09/20 04:59:31;;;;;;;36.15;8.57;;;;;;;15.58;100.00;98769.88;4975027;28;20026;-90
2023/09/20 05:01:56;;;;;;;34.60;8.52;;;;;;;15.64;100.00;98753.63;4974385;28;20035;-91
2023/09/20 05:04:21;;;;;;;31.30;9.05;;;;;;;15.70;100.00;98783.41;4975050;28;20401;-91
2023/09/20 05:06:47;;;;;;;28.52;7.43;;;;;;;15.80;100.00;98743.28;4974901;28;20161;-89
2023/09/20 05:09:13;;;;;;;30.42;8.00;;;;;;;15.71;100.00;98769.44;5006116;28;20023;-91
2023/09/20 05:11:38;;;;;;;29.42;8.35;;;;;;;15.78;100.00;98754.81;4974727;28;20034;-92
2023/09/20 05:14:07;;;;;;;30.58;8.50;;;;;;;15.70;100.00;98747.81;4974838;28;20384;-90
2023/09/20 05:16:32;;;;;;;35.78;8.75;;;;;;;15.71;100.00;98757.25;4973541;28;20032;-91
2023/09/20 05:18:58;;;;;;;33.28;8.73;;;;;;;15.77;100.00;98759.19;4974596;28;20413;-91
2023/09/20 05:21:24;;;;;;;34.55;8.38;;;;;;;15.85;100.00;98763.59;4974706;28;20025;-92
2023/09/20 05:23:49;;;;;;;33.53;10.93;;;;;;;15.77;100.00;98759.19;5005883;28;20090;-90
2023/09/20 05:26:14;;;;;;;33.15;8.13;;;;;;;15.73;100.00;98759.69;4974663;28;20042;-89
2023/09/20 05:28:40;;;;;;;34.83;10.82;;;;;;;15.72;100.00;98777.06;4974507;28;20026;-92
2023/09/20 05:31:06;;;;;;;35.95;8.40;;;;;;;15.78;100.00;98791.25;4974472;28;20030;-89
2023/09/20 05:33:32;;;;;;;27.98;8.23;;;;;;;15.80;100.00;98777.09;5005291;28;20035;-89
2023/09/20 05:35:58;;;;;;;39.75;10.30;;;;;;;15.87;100.00;98774.63;5005917;28;20055;-90
2023/09/20 05:38:26;;;;;;;33.22;8.40;;;;;;;15.80;100.00;98784.06;4974395;28;20110;-91
2023/09/20 05:40:53;;;;;;;26.77;7.25;;;;;;;15.92;100.00;98769.75;4974399;28;20031;-90
2023/09/20 05:43:18;;;;;;;27.33;7.22;;;;;;;15.88;100.00;98771.06;4974807;28;20038;-90
2023/09/20 05:45:44;;;;;;;29.80;8.52;;;;;;;15.81;100.00;98768.28;4992502;28;20042;-90
2023/09/20 05:48:12;;;;;;;35.47;7.68;;;;;;;15.87;100.00;98759.03;4993633;28;20018;-92
2023/09/20 05:50:38;;;;;;;27.52;7.82;;;;;;;15.84;100.00;98760.16;4982145;28;20071;-91
2023/09/20 05:53:06;;;;;;;26.20;7.68;;;;;;;15.79;100.00;98759.03;4972930;28;20026;-92
2023/09/20 05:55:33;;;;;;;30.88;7.60;;;;;;;15.87;100.00;98761.63;4973561;28;20400;-89
2023/09/20 05:58:00;;;;;;;34.88;8.30;;;;;;;15.86;100.00;98756.59;4976010;28;20022;-90
2023/09/20 06:00:25;;;;;;;33.17;8.10;;;;;;;15.89;100.00;98757.06;4974539;28;20371;-90
2023/09/20 06:02:50;;;;;;;31.02;7.68;;;;;;;15.83;100.00;98750.75;4973043;28;20425;-91
2023/09/20 06:05:16;;;;;;;29.30;8.40;;;;;;;15.84;100.00;98741.94;4973939;28;20549;-90
2023/09/20 06:07:44;;;;;;;26.33;7.65;;;;;;;15.90;100.00;98739.66;4973783;28;20114;-90
2023/09/20 06:10:10;;;;;;;28.83;7.95;;;;;;;15.86;100.00;98774.81;4973823;28;20049;-91
2023/09/20 06:12:36;;;;;;;28.45;7.38;;;;;;;15.88;100.00;98757.25;4973254;28;20033;-90
2023/09/20 06:15:02;;;;;;;33.55;9.73;;;;;;;15.95;100.00;98776.44;4973201;28;20027;-90
2023/09/20 06:17:29;;;;;;;30.70;8.05;;;;;;;15.83;100.00;98768.94;4972535;28;20051;-90
2023/09/20 06:19:57;;;;;;;34.17;7.78;;;;;;;15.87;100.00;98784.22;5004706;28;20022;-89
2023/09/20 06:22:31;;;;;;;35.97;9.32;;;;;;;15.88;100.00;98785.88;4973259;28;20118;-90
2023/09/20 06:24:58;;;;;;;36.95;9.30;;;;;;;15.98;100.00;98802.13;4973654;28;20095;-90
2023/09/20 06:27:24;;;;;;;28.92;8.77;;;;;;;15.95;100.00;98792.06;4973404;28;20023;-90
2023/09/20 06:29:49;;;;;;;27.48;8.55;;;;;;;15.98;100.00;98792.53;4972935;28;20045;-90
2023/09/20 06:32:15;;;;;;;28.33;7.85;;;;;;;16.00;100.00;98797.59;4973085;28;20125;-90
2023/09/20 06:34:41;;;;;;;26.75;7.85;;;;;;;15.93;100.00;98807.00;4973276;28;20202;-89
2023/09/20 06:37:09;;;;;;;30.67;8.30;;;;;;;15.96;100.00;98789.28;4973288;28;20085;-90
2023/09/20 06:39:35;;;;;;;24.27;7.90;;;;;;;16.08;100.00;98787.16;4973053;28;20026;-91
2023/09/20 06:42:01;;;;;;;26.70;7.25;;;;;;;16.00;100.00;98800.19;4973015;28;20182;-91
2023/09/20 06:44:27;;;;;;;32.17;8.63;;;;;;;16.04;100.00;98794.50;4973132;28;20061;-91
2023/09/20 06:46:53;;;;;;;34.13;8.73;;;;;;;16.01;100.00;98788.78;4973085;28;20105;-90
2023/09/20 06:49:18;;;;;;;28.83;6.57;;;;;;;15.97;100.00;98785.72;4972911;28;20085;-90
2023/09/20 06:51:43;;;;;;;39.00;8.65;;;;;;;15.94;100.00;98775.59;4984703;28;20073;-90
2023/09/20 06:54:09;;;;;;;29.33;7.68;;;;;;;15.96;100.00;98768.44;4983691;28;20469;-91
2023/09/20 06:56:35;;;;;;;31.73;8.00;;;;;;;15.91;100.00;98747.31;4984383;28;20097;-94
2023/09/20 06:59:03;;;;;;;32.95;7.53;;;;;;;15.96;100.00;98773.66;4993028;28;20110;-93
2023/09/20 07:01:29;;;;;;;25.85;6.45;;;;;;;15.97;100.00;98743.25;4971730;28;20409;-93
2023/09/20 07:03:54;;;;;;;43.65;9.25;;;;;;;15.90;100.00;98748.31;4976671;28;20033;-93
2023/09/20 07:06:19;;;;;;;23.35;6.60;;;;;;;15.93;100.00;98742.78;4972069;28;20034;-95
2023/09/20 07:08:45;;;;;;;29.98;8.40;;;;;;;15.89;100.00;98725.03;4972294;28;20026;-94
2023/09/20 07:11:13;;;;;;;32.97;8.45;;;;;;;15.85;100.00;98711.56;4972541;28;20041;-94
2023/09/20 07:13:38;;;;;;;26.95;8.05;;;;;;;15.89;100.00;98731.06;4972034;28;20400;-94
2023/09/20 07:16:06;;;;;;;30.88;7.53;;;;;;;15.96;100.00;98741.63;4972092;28;20027;-93
2023/09/20 07:18:32;;;;;;;37.72;7.70;;;;;;;15.93;100.00;98741.97;4992025;28;20061;-92
2023/09/20 07:20:57;;;;;;;34.35;7.00;;;;;;;15.91;100.00;98756.91;4973975;28;20046;-93
2023/09/20 07:23:23;;;;;;;32.65;8.77;;;;;;;15.97;100.00;98732.84;4972786;28;20118;-92
2023/09/20 07:25:50;;;;;;;35.70;8.15;;;;;;;15.96;100.00;98736.41;4976154;28;20477;-93
2023/09/20 07:28:16;;;;;;;34.90;6.88;;;;;;;15.96;100.00;98726.00;4975793;28;20596;-93
2023/09/20 07:30:45;;;;;;;30.42;7.60;;;;;;;15.92;100.00;98724.72;4976670;28;20073;-91
2023/09/20 07:33:12;;;;;;;34.38;9.30;;;;;;;15.95;100.00;98727.00;4976196;28;20023;-92
2023/09/20 07:35:47;;;;;;;28.10;7.28;;;;;;;15.91;100.00;98708.28;4977676;28;20031;-94
2023/09/20 07:38:18;;;;;;;27.55;8.20;;;;;;;15.95;100.00;98719.19;4979781;28;20038;-94
2023/09/20 07:40:44;;;;;;;23.75;7.78;;;;;;;15.97;100.00;98706.81;4976793;28;20110;-94
2023/09/20 07:43:10;;;;;;;36.88;6.55;;;;;;;15.89;100.00;98694.63;4975429;28;20141;-94
2023/09/20 07:45:39;;;;;;;25.63;6.95;;;;;;;15.83;100.00;98688.31;5020189;23;20525;-96
2023/09/20 07:48:12;;;;;;;33.45;7.50;;;;;;;15.79;100.00;98653.19;4973042;28;20030;-96
2023/09/20 07:50:44;;;;;;;23.70;7.47;;;;;;;15.70;100.00;98658.56;4977356;28;20033;-96
2023/09/20 07:53:11;;;;;;;35.40;8.05;;;;;;;15.69;100.00;98652.53;4947980;28;20506;-90
2023/09/20 07:55:41;;;;;;;36.38;7.45;;;;;;;15.65;100.00;98664.22;4951376;29;20133;-96
2023/09/20 07:58:08;;;;;;;27.42;7.38;;;;;;;15.65;100.00;98661.63;4955314;29;20047;-96
2023/09/20 08:00:40;;;;;;;36.80;7.55;;;;;;;15.52;100.00;98661.31;4963624;29;20027;-96
2023/09/20 08:03:07;;;;;;;30.40;6.55;;;;;;;15.43;100.00;98668.28;4964277;28;20035;-95
2023/09/20 08:05:33;;;;;;;37.97;8.05;;;;;;;15.40;100.00;98676.44;4958467;29;20042;-93
2023/09/20 08:07:59;;;;;;;39.10;7.63;;;;;;;15.34;100.00;98658.91;4974808;28;20036;-94
2023/09/20 08:10:24;;;;;;;38.20;7.55;;;;;;;15.26;100.00;98662.28;4949964;29;20031;-95
2023/09/20 08:12:49;;;;;;;38.55;8.35;;;;;;;15.21;100.00;98669.75;4947339;29;20059;-96
2023/09/20 08:15:15;;;;;;;39.72;7.78;;;;;;;15.13;100.00;98646.38;4947949;29;20032;-95
2023/09/20 08:20:27;;;;;;;45.92;9.75;;;;;;;15.07;100.00;98621.00;4944933;29;20144;-95
2023/09/20 09:01:37;;;;;;;34.10;8.95;;;;;;;14.86;100.00;98614.50;4936520;29;20030;-93
2023/09/20 09:04:06;;;;;;;31.17;8.02;;;;;;;14.88;100.00;98617.75;4936334;29;20047;-93
2023/09/20 09:06:31;;;;;;;30.67;7.53;;;;;;;14.86;100.00;98622.31;4935012;29;20094;-92
2023/09/20 09:08:57;;;;;;;29.13;8.43;;;;;;;14.94;100.00;98614.50;4935209;29;20478;-94
2023/09/20 09:11:24;;;;;;;30.52;8.50;;;;;;;14.90;100.00;98618.41;4988709;23;20524;-96
2023/09/20 09:13:54;;;;;;;33.35;7.43;;;;;;;14.89;100.00;98619.38;5026312;23;20043;-94
2023/09/20 09:16:30;;;;;;;27.65;7.65;;;;;;;14.94;100.00;98619.69;5184146;23;20057;-96
2023/09/20 09:21:27;;;;;;;36.20;7.88;;;;;;;14.97;100.00;98610.78;4938792;29;20054;-95
2023/09/20 09:28:55;;;;;;;48.53;8.02;;;;;;;14.93;100.00;98620.69;5866177;23;20120;-95
2023/09/20 09:33:51;;;;;;;29.30;7.32;;;;;;;15.03;100.00;98594.56;5273420;23;20078;-95
2023/09/20 09:36:16;;;;;;;42.22;9.77;;;;;;;15.05;100.00;98607.41;4956075;28;20027;-95
2023/09/20 09:38:42;;;;;;;56.03;8.85;;;;;;;15.06;100.00;98609.00;4959027;28;20030;-96
2023/09/20 09:41:08;;;;;;;35.15;7.75;;;;;;;15.05;100.00;98604.78;4959591;29;20047;-91
2023/09/20 09:43:34;;;;;;;37.40;8.82;;;;;;;15.08;100.00;98591.47;4931107;29;20040;-91
2023/09/20 09:46:08;;;;;;;36.10;8.30;;;;;;;15.09;100.00;98593.09;4915427;29;20497;-90
2023/09/20 09:48:34;;;;;;;38.67;6.97;;;;;;;15.09;100.00;98580.09;4915548;29;20024;-90
2023/09/20 09:51:01;;;;;;;27.83;7.05;;;;;;;15.08;100.00;98586.28;4934240;29;20046;-91
2023/09/20 09:53:29;;;;;;;38.63;7.80;;;;;;;15.09;100.00;98577.50;4935461;29;20082;-91
2023/09/20 09:55:56;;;;;;;26.08;6.05;;;;;;;15.11;100.00;98565.97;4934928;29;20032;-91
2023/09/20 09:58:21;;;;;;;24.45;5.82;;;;;;;15.11;100.00;98580.75;4934398;29;20059;-91
2023/09/20 10:00:51;;;;;;;35.15;6.38;;;;;;;15.08;100.00;98576.69;4935411;29;20059;-91
2023/09/20 10:03:29;;;;;;;21.33;5.68;;;;;;;15.06;100.00;98577.81;4949510;28;20036;-90
2023/09/20 10:06:05;;;;;;;17.20;5.15;;;;;;;15.13;100.00;98563.22;4916362;29;20094;-92
2023/09/20 10:08:32;;;;;;;24.88;5.18;;;;;;;15.08;100.00;98571.50;4947650;29;20491;-94
2023/09/20 10:11:02;;;;;;;24.45;5.47;;;;;;;15.08;100.00;98566.28;4920469;29;20094;-92
2023/09/20 10:13:29;;;;;;;29.60;5.78;;;;;;;15.09;100.00;98575.69;4934953;29;20174;-91
2023/09/20 10:15:57;;;;;;;14.68;4.47;;;;;;;15.10;100.00;98553.16;4933946;29;20031;-90
2023/09/20 10:18:24;;;;;;;29.42;5.43;;;;;;;15.17;100.00;98565.31;4935048;29;20512;-90
2023/09/20 10:21:11;;;;;;;22.58;5.13;;;;;;;15.18;100.00;98560.94;4934682;29;20387;-89
2023/09/20 10:23:37;;;;;;;18.98;3.85;;;;;;;15.25;100.00;98566.28;4934880;29;20082;-90
2023/09/20 10:26:13;;;;;;;16.90;3.83;;;;;;;15.22;100.00;98545.84;4934137;29;20027;-89
2023/09/20 10:28:44;;;;;;;11.63;3.67;;;;;;;15.25;100.00;98561.91;4933829;29;20036;-89
2023/09/20 10:31:15;;;;;;;11.40;3.63;;;;;;;15.25;100.00;98546.31;4934962;29;20062;-92
2023/09/20 10:33:47;;;;;;;11.50;3.60;;;;;;;15.28;100.00;98543.38;4934766;29;20039;-92
2023/09/20 10:36:19;;;;;;;14.48;2.70;;;;;;;15.28;100.00;98551.16;4933558;29;20039;-92
2023/09/20 10:38:46;;;;;;;15.48;2.70;;;;;;;15.31;100.00;98540.44;4931794;29;20020;-92
2023/09/20 10:41:12;;;;;;;11.75;2.60;;;;;;;15.29;100.00;98529.41;4940908;29;20028;-93
2023/09/20 10:43:38;;;;;;;20.42;3.63;;;;;;;15.31;100.00;98530.03;4949412;29;20032;-92
2023/09/20 10:46:10;;;;;;;19.25;2.72;;;;;;;15.35;100.00;98526.16;4933552;29;20038;-91
2023/09/20 10:48:40;;;;;;;14.07;2.97;;;;;;;15.33;100.00;98499.50;4934659;29;20070;-92
2023/09/20 10:51:07;;;;;;;11.32;2.83;;;;;;;15.32;100.00;98497.88;4934544;29;20133;-92
2023/09/20 10:53:44;;;;;;;13.95;3.03;;;;;;;15.44;100.00;98500.16;4934521;29;20505;-91
2023/09/20 10:56:30;;;;;;;11.48;2.30;;;;;;;15.45;100.00;98510.38;4929423;29;20117;-91
2023/09/20 10:58:57;;;;;;;12.65;2.92;;;;;;;15.39;100.00;98522.25;4921320;29;20020;-91
2023/09/20 11:01:22;;;;;;;9.38;2.30;;;;;;;15.38;100.00;98515.41;4948957;28;20038;-93
2023/09/20 11:03:47;;;;;;;14.40;2.88;;;;;;;15.41;100.00;98515.09;4934506;29;20110;-92
2023/09/20 11:06:13;;;;;;;15.55;2.88;;;;;;;15.41;100.00;98512.50;4949383;28;20036;-94
2023/09/20 11:08:38;;;;;;;15.85;2.78;;;;;;;15.50;100.00;98520.25;4933997;29;20039;-94
2023/09/20 11:11:06;;;;;;;13.60;2.60;;;;;;;15.47;100.00;98508.41;4948392;28;20457;-89
2023/09/20 11:13:32;;;;;;;9.85;2.67;;;;;;;15.45;100.00;98520.75;4934233;29;20498;-92
2023/09/20 11:16:00;;;;;;;19.70;3.25;;;;;;;15.44;100.00;98519.16;4934486;29;20032;-89
2023/09/20 11:18:25;;;;;;;11.05;2.10;;;;;;;15.47;100.00;98529.22;4934495;29;20023;-88
2023/09/20 11:20:51;;;;;;;15.10;2.70;;;;;;;15.45;100.00;98525.16;4934151;29;20027;-88
2023/09/20 11:23:16;;;;;;;12.13;2.70;;;;;;;15.46;100.00;98524.16;4934169;29;20598;-89
2023/09/20 11:25:41;;;;;;;13.15;2.53;;;;;;;15.38;100.00;98520.59;4934018;29;20031;-89
2023/09/20 11:28:09;;;;;;;16.48;3.22;;;;;;;15.38;100.00;98531.00;4933936;29;20517;-89
2023/09/20 11:30:34;;;;;;;22.35;5.13;;;;;;;15.39;100.00;98519.66;4934337;29;20024;-88
2023/09/20 11:33:03;;;;;;;11.50;2.28;;;;;;;15.43;100.00;98520.13;4934277;29;20545;-88
2023/09/20 11:35:37;;;;;;;15.25;4.07;;;;;;;15.43;100.00;98516.72;4934260;29;20034;-88
2023/09/20 11:38:07;;;;;;;11.23;2.53;;;;;;;15.48;100.00;98523.03;4933085;29;20052;-89
2023/09/20 11:40:37;;;;;;;11.23;2.95;;;;;;;15.44;100.00;98519.16;4934235;29;20031;-89
2023/09/20 11:43:04;;;;;;;14.80;3.85;;;;;;;15.45;100.00;98512.16;4934151;29;20087;-89
2023/09/20 11:45:29;;;;;;;7.80;1.92;;;;;;;15.45;100.00;98504.34;4934091;29;20028;-88
2023/09/20 11:47:55;;;;;;;10.52;2.30;;;;;;;15.40;100.00;98503.06;4934326;29;20111;-88
2023/09/20 11:50:24;;;;;;;10.85;2.10;;;;;;;15.45;100.00;98504.34;4934183;29;20031;-89
2023/09/20 11:52:50;;;;;;;8.23;1.42;;;;;;;15.44;100.00;98492.34;4934179;29;20039;-88
2023/09/20 11:55:16;;;;;;;4.80;1.63;;;;;;;15.41;100.00;98489.09;4934349;29;20028;-88
2023/09/20 11:57:48;;;;;;;7.45;1.50;;;;;;;15.45;100.00;98494.75;4934086;29;20067;-88
2023/09/20 12:00:18;;;;;;;12.88;1.67;;;;;;;15.45;100.00;98473.97;4932847;29;20027;-88
2023/09/20 12:02:44;;;;;;;13.32;2.78;;;;;;;15.43;100.00;98480.31;4934151;29;20067;-88
2023/09/20 12:05:11;;;;;;;9.85;2.28;;;;;;;15.39;100.00;98475.44;4934569;29;20530;-89
2023/09/20 12:07:36;;;;;;;9.68;1.70;;;;;;;15.43;100.00;98477.72;4948735;28;20394;-88